Time;durP1;ratioP1;P1;durP2;ratioP2;P2;SDS_P1;SDS_P2;PMS_P1;PMS_P2;Temp;Humidity;BMP_temperature;BMP_pressure;BME280_temperature;BME280_humidity;BME280_pressure;Samples;Min_cycle;Max_cycle;Signal;HPM_P1;HPM_P2
2022/11/14 00:00:54;;;;;;;0.40;0.40;;;;;;;;;;1874996;75;26260;-55
2022/11/14 00:03:21;;;;;;;0.45;0.40;;;;;;;;;;1877513;75;26279;-53
2022/11/14 00:05:48;;;;;;;0.35;0.35;;;;;;;;;;1871952;75;26322;-54
2022/11/14 00:08:17;;;;;;;0.42;0.42;;;;;;;;;;1878815;75;26344;-52
2022/11/14 00:10:45;;;;;;;1.07;0.42;;;;;;;;;;1876753;76;26266;-54
2022/11/14 00:13:13;;;;;;;0.35;0.35;;;;;;;;;;1879604;76;26274;-56
2022/11/14 00:15:40;;;;;;;0.40;0.40;;;;;;;;;;1878362;74;26332;-53
2022/11/14 00:18:07;;;;;;;0.47;0.40;;;;;;;;;;1875402;76;26775;-55
2022/11/14 00:20:36;;;;;;;0.30;0.30;;;;;;;;;;1876184;76;26215;-52
2022/11/14 00:23:03;;;;;;;0.35;0.35;;;;;;;;;;1868114;76;27347;-53
2022/11/14 00:25:31;;;;;;;0.40;0.40;;;;;;;;;;1875076;75;26263;-54
2022/11/14 00:27:59;;;;;;;0.60;0.45;;;;;;;;;;1867760;76;27856;-54
2022/11/14 00:30:27;;;;;;;0.50;0.50;;;;;;;;;;1870458;75;26311;-54
2022/11/14 00:32:54;;;;;;;0.35;0.35;;;;;;;;;;1873872;75;26322;-54
2022/11/14 00:35:21;;;;;;;0.45;0.45;;;;;;;;;;1875398;75;27444;-50
2022/11/14 00:37:49;;;;;;;0.40;0.40;;;;;;;;;;1873795;75;26204;-53
2022/11/14 00:40:17;;;;;;;0.40;0.40;;;;;;;;;;1879445;75;26357;-54
2022/11/14 00:42:44;;;;;;;0.30;0.30;;;;;;;;;;1880637;76;26744;-50
2022/11/14 00:45:11;;;;;;;0.37;0.37;;;;;;;;;;1858958;75;26313;-54
2022/11/14 00:47:39;;;;;;;0.30;0.30;;;;;;;;;;1876945;75;26258;-47
2022/11/14 00:50:07;;;;;;;0.47;0.47;;;;;;;;;;1876871;75;26385;-51
2022/11/14 00:52:34;;;;;;;0.40;0.40;;;;;;;;;;1873030;75;26314;-51
2022/11/14 00:55:01;;;;;;;0.47;0.40;;;;;;;;;;1868441;75;26312;-52
2022/11/14 00:57:29;;;;;;;0.28;0.28;;;;;;;;;;1872273;75;26916;-48
2022/11/14 00:59:56;;;;;;;0.40;0.40;;;;;;;;;;1880589;75;26314;-46
2022/11/14 01:02:24;;;;;;;0.40;0.40;;;;;;;;;;1881065;75;26343;-50
2022/11/14 01:04:51;;;;;;;1.25;0.40;;;;;;;;;;1865679;75;26338;-52
2022/11/14 01:07:18;;;;;;;0.40;0.40;;;;;;;;;;1877800;75;26323;-50
2022/11/14 01:09:45;;;;;;;0.45;0.40;;;;;;;;;;1874460;75;26552;-49
2022/11/14 01:12:13;;;;;;;0.30;0.30;;;;;;;;;;1878041;75;26253;-48
2022/11/14 01:14:40;;;;;;;0.50;0.50;;;;;;;;;;1874149;75;27281;-48
2022/11/14 01:17:07;;;;;;;0.40;0.40;;;;;;;;;;1878807;75;26963;-52
2022/11/14 01:19:35;;;;;;;0.30;0.30;;;;;;;;;;1879599;75;26364;-51
2022/11/14 01:22:02;;;;;;;0.40;0.40;;;;;;;;;;1891483;75;26353;-49
2022/11/14 01:24:31;;;;;;;0.70;0.50;;;;;;;;;;1882340;75;26325;-55
2022/11/14 01:26:59;;;;;;;0.30;0.30;;;;;;;;;;1881475;75;26329;-55
2022/11/14 01:29:26;;;;;;;0.53;0.45;;;;;;;;;;1878880;75;26207;-53
2022/11/14 01:31:54;;;;;;;0.37;0.37;;;;;;;;;;1873234;75;26256;-55
2022/11/14 01:34:21;;;;;;;0.40;0.40;;;;;;;;;;1862461;75;27106;-51
2022/11/14 01:36:49;;;;;;;0.50;0.50;;;;;;;;;;1866324;75;25378;-50
2022/11/14 01:39:16;;;;;;;0.40;0.40;;;;;;;;;;1870809;75;26882;-50
2022/11/14 01:41:43;;;;;;;0.40;0.40;;;;;;;;;;1818366;77;26824;-52
2022/11/14 01:44:17;;;;;;;0.30;0.30;;;;;;;;;;1813635;77;26569;-52
2022/11/14 01:46:46;;;;;;;0.40;0.40;;;;;;;;;;1817682;77;26221;-49
2022/11/14 01:49:18;;;;;;;0.50;0.50;;;;;;;;;;1844674;77;26205;-50
2022/11/14 01:51:50;;;;;;;0.40;0.40;;;;;;;;;;1838147;76;26810;-55
2022/11/14 01:54:22;;;;;;;0.40;0.40;;;;;;;;;;1844532;76;26244;-53
2022/11/14 01:56:50;;;;;;;0.30;0.30;;;;;;;;;;1833375;76;26286;-52
2022/11/14 01:59:19;;;;;;;0.57;0.42;;;;;;;;;;1795544;77;26305;-51
2022/11/14 02:01:48;;;;;;;0.20;0.20;;;;;;;;;;1813757;77;26276;-48
2022/11/14 02:04:26;;;;;;;0.20;0.20;;;;;;;;;;1839011;76;26270;-55
2022/11/14 02:06:54;;;;;;;0.42;0.42;;;;;;;;;;1847154;76;26252;-48
2022/11/14 02:09:22;;;;;;;0.40;0.40;;;;;;;;;;1847439;76;26421;-53
2022/11/14 02:11:50;;;;;;;0.33;0.33;;;;;;;;;;1848904;77;26817;-52
2022/11/14 02:14:18;;;;;;;0.30;0.30;;;;;;;;;;1839450;77;26261;-51
2022/11/14 02:16:45;;;;;;;0.30;0.30;;;;;;;;;;1846792;77;27529;-52
2022/11/14 02:19:14;;;;;;;0.30;0.30;;;;;;;;;;1836700;77;26407;-52
2022/11/14 02:21:41;;;;;;;0.40;0.40;;;;;;;;;;1839538;77;26819;-51
2022/11/14 02:24:09;;;;;;;0.30;0.30;;;;;;;;;;1845548;76;26272;-52
2022/11/14 02:26:37;;;;;;;0.20;0.20;;;;;;;;;;1834336;76;26333;-51
2022/11/14 02:29:06;;;;;;;0.37;0.37;;;;;;;;;;1846569;76;26240;-51
2022/11/14 02:31:33;;;;;;;0.20;0.20;;;;;;;;;;1846112;76;26693;-52
2022/11/14 02:34:01;;;;;;;1.20;0.40;;;;;;;;;;1845321;76;26356;-53
2022/11/14 02:36:28;;;;;;;1.25;0.30;;;;;;;;;;1846855;76;26260;-55
2022/11/14 02:38:55;;;;;;;0.30;0.30;;;;;;;;;;1846215;76;26740;-52
2022/11/14 02:41:22;;;;;;;0.30;0.30;;;;;;;;;;1844873;76;26286;-54
2022/11/14 02:43:50;;;;;;;0.30;0.30;;;;;;;;;;1843336;77;26244;-49
2022/11/14 02:46:17;;;;;;;0.95;0.40;;;;;;;;;;1846614;76;26318;-52
2022/11/14 02:48:44;;;;;;;0.20;0.20;;;;;;;;;;1840985;76;26356;-52
2022/11/14 02:51:12;;;;;;;0.20;0.20;;;;;;;;;;1841148;76;26270;-51
2022/11/14 02:53:39;;;;;;;0.50;0.50;;;;;;;;;;1842565;76;26698;-51
2022/11/14 02:56:06;;;;;;;0.30;0.30;;;;;;;;;;1807255;78;26711;-54
2022/11/14 02:58:34;;;;;;;0.33;0.33;;;;;;;;;;1848185;77;26265;-50
2022/11/14 03:01:01;;;;;;;0.30;0.30;;;;;;;;;;1829668;77;26801;-49
2022/11/14 03:03:28;;;;;;;0.30;0.30;;;;;;;;;;1833818;77;26307;-53
2022/11/14 03:06:00;;;;;;;0.30;0.30;;;;;;;;;;1835309;76;26286;-51
2022/11/14 03:08:27;;;;;;;0.28;0.28;;;;;;;;;;1839973;76;26274;-52
2022/11/14 03:10:55;;;;;;;0.28;0.28;;;;;;;;;;1812493;77;26669;-52
2022/11/14 03:13:22;;;;;;;0.20;0.20;;;;;;;;;;1815193;78;26274;-51
2022/11/14 03:15:50;;;;;;;0.30;0.30;;;;;;;;;;1847146;76;26287;-54
2022/11/14 03:18:17;;;;;;;0.28;0.28;;;;;;;;;;1843970;77;26276;-54
2022/11/14 03:20:44;;;;;;;0.30;0.30;;;;;;;;;;1847640;77;26326;-51
2022/11/14 03:23:12;;;;;;;0.25;0.25;;;;;;;;;;1840074;77;26862;-53
2022/11/14 03:25:39;;;;;;;0.40;0.40;;;;;;;;;;1844283;76;26811;-53
2022/11/14 03:28:07;;;;;;;0.30;0.30;;;;;;;;;;1845143;77;26361;-59
2022/11/14 03:30:34;;;;;;;0.17;0.17;;;;;;;;;;1841886;77;26294;-53
2022/11/14 03:33:01;;;;;;;0.28;0.28;;;;;;;;;;1843659;76;26245;-51
2022/11/14 03:35:28;;;;;;;0.20;0.20;;;;;;;;;;1837954;76;26260;-50
2022/11/14 03:37:55;;;;;;;0.20;0.20;;;;;;;;;;1838440;77;26328;-51
2022/11/14 03:40:24;;;;;;;0.30;0.30;;;;;;;;;;1833340;77;26292;-55
2022/11/14 03:42:51;;;;;;;0.30;0.30;;;;;;;;;;1827207;77;26244;-47
2022/11/14 03:45:18;;;;;;;0.20;0.20;;;;;;;;;;1838892;77;26269;-52
2022/11/14 03:47:45;;;;;;;0.20;0.20;;;;;;;;;;1848186;77;26334;-48
2022/11/14 03:50:13;;;;;;;0.30;0.30;;;;;;;;;;1843384;77;26665;-50
2022/11/14 03:52:40;;;;;;;0.33;0.33;;;;;;;;;;1842252;77;25318;-48
2022/11/14 03:55:07;;;;;;;0.10;0.10;;;;;;;;;;1846399;77;26311;-51
2022/11/14 03:57:36;;;;;;;0.30;0.30;;;;;;;;;;1837149;76;26238;-50
2022/11/14 04:00:04;;;;;;;0.10;0.10;;;;;;;;;;1826126;76;26272;-48
2022/11/14 04:02:31;;;;;;;0.20;0.20;;;;;;;;;;1828935;76;26358;-53
2022/11/14 04:04:58;;;;;;;0.20;0.20;;;;;;;;;;1803391;78;26661;-49
2022/11/14 04:07:25;;;;;;;0.20;0.20;;;;;;;;;;1843726;76;26274;-51
2022/11/14 04:09:53;;;;;;;0.30;0.30;;;;;;;;;;1849092;76;26292;-48
2022/11/14 04:12:20;;;;;;;0.20;0.20;;;;;;;;;;1809012;77;26396;-54
2022/11/14 04:14:47;;;;;;;0.40;0.40;;;;;;;;;;1845778;76;26319;-54
2022/11/14 04:17:15;;;;;;;0.30;0.30;;;;;;;;;;1842792;76;26252;-49
2022/11/14 04:19:42;;;;;;;0.30;0.30;;;;;;;;;;1846910;77;26738;-52
2022/11/14 04:22:10;;;;;;;0.28;0.28;;;;;;;;;;1829384;78;26260;-52
2022/11/14 04:24:37;;;;;;;0.20;0.20;;;;;;;;;;1839675;78;26358;-51
2022/11/14 04:27:04;;;;;;;0.20;0.20;;;;;;;;;;1833432;76;26260;-51
2022/11/14 04:29:31;;;;;;;0.28;0.28;;;;;;;;;;1839822;78;27120;-53
2022/11/14 04:31:59;;;;;;;0.20;0.20;;;;;;;;;;1845591;78;26272;-52
2022/11/14 04:34:26;;;;;;;0.30;0.30;;;;;;;;;;1834703;78;26299;-52
2022/11/14 04:36:53;;;;;;;0.15;0.15;;;;;;;;;;1836756;77;26373;-52
2022/11/14 04:39:21;;;;;;;0.20;0.20;;;;;;;;;;1831052;77;26718;-51
2022/11/14 04:41:48;;;;;;;0.30;0.30;;;;;;;;;;1844992;78;26374;-49
2022/11/14 04:44:15;;;;;;;0.30;0.30;;;;;;;;;;1832669;78;26333;-52
2022/11/14 04:46:42;;;;;;;0.20;0.20;;;;;;;;;;1838288;76;26314;-54
2022/11/14 04:49:10;;;;;;;0.10;0.10;;;;;;;;;;1837062;77;26365;-49
2022/11/14 04:51:37;;;;;;;0.20;0.20;;;;;;;;;;1839160;78;26217;-51
2022/11/14 04:54:04;;;;;;;0.30;0.30;;;;;;;;;;1835261;78;26263;-52
2022/11/14 04:56:32;;;;;;;0.40;0.40;;;;;;;;;;1843034;77;26253;-48
2022/11/14 04:58:59;;;;;;;0.20;0.20;;;;;;;;;;1831608;77;26828;-54
2022/11/14 05:01:26;;;;;;;0.10;0.10;;;;;;;;;;1839444;77;27310;-50
2022/11/14 05:03:54;;;;;;;0.30;0.30;;;;;;;;;;1825515;78;26385;-50
2022/11/14 05:06:21;;;;;;;0.30;0.30;;;;;;;;;;1825714;77;26272;-52
2022/11/14 05:08:48;;;;;;;0.47;0.47;;;;;;;;;;1842425;78;26334;-54
2022/11/14 05:11:16;;;;;;;0.40;0.40;;;;;;;;;;1835540;77;26336;-50
2022/11/14 05:13:44;;;;;;;0.30;0.30;;;;;;;;;;1836150;78;26274;-51
2022/11/14 05:16:11;;;;;;;0.20;0.20;;;;;;;;;;1845027;76;26274;-52
2022/11/14 05:18:39;;;;;;;0.20;0.20;;;;;;;;;;1839181;78;26724;-53
2022/11/14 05:21:06;;;;;;;0.30;0.30;;;;;;;;;;1839444;78;26343;-56
2022/11/14 05:23:34;;;;;;;0.30;0.30;;;;;;;;;;1840979;78;26756;-54
2022/11/14 05:26:05;;;;;;;0.30;0.30;;;;;;;;;;1844147;77;27805;-52
2022/11/14 05:28:33;;;;;;;0.30;0.30;;;;;;;;;;1839884;78;26248;-53
2022/11/14 05:31:02;;;;;;;0.20;0.20;;;;;;;;;;1843139;78;26829;-55
2022/11/14 05:33:29;;;;;;;0.20;0.20;;;;;;;;;;1824818;77;26307;-52
2022/11/14 05:35:58;;;;;;;0.10;0.10;;;;;;;;;;1835557;76;26749;-55
2022/11/14 05:38:26;;;;;;;0.25;0.25;;;;;;;;;;1840439;78;26279;-54
2022/11/14 05:40:53;;;;;;;0.40;0.40;;;;;;;;;;1837950;78;26260;-52
2022/11/14 05:43:20;;;;;;;0.72;0.37;;;;;;;;;;1836887;78;26334;-57
2022/11/14 05:45:47;;;;;;;0.70;0.40;;;;;;;;;;1843056;78;26256;-54
2022/11/14 05:48:15;;;;;;;2.05;0.42;;;;;;;;;;1841456;76;26210;-52
2022/11/14 05:50:42;;;;;;;0.47;0.47;;;;;;;;;;1839973;78;26260;-55
2022/11/14 05:53:09;;;;;;;0.88;0.42;;;;;;;;;;1835974;78;26282;-55
2022/11/14 05:55:37;;;;;;;2.27;0.57;;;;;;;;;;1841972;78;26371;-52
2022/11/14 05:58:04;;;;;;;2.05;0.50;;;;;;;;;;1842439;76;26260;-56
2022/11/14 06:00:31;;;;;;;1.65;0.50;;;;;;;;;;1844453;78;26358;-54
2022/11/14 06:02:59;;;;;;;0.60;0.60;;;;;;;;;;1835769;78;26281;-56
2022/11/14 06:05:26;;;;;;;0.50;0.50;;;;;;;;;;1839636;78;26568;-55
2022/11/14 06:07:58;;;;;;;0.55;0.55;;;;;;;;;;1837290;76;26209;-54
2022/11/14 06:10:25;;;;;;;1.12;0.35;;;;;;;;;;1839256;78;26274;-53
2022/11/14 06:12:53;;;;;;;2.35;0.60;;;;;;;;;;1833447;78;26260;-52
2022/11/14 06:15:20;;;;;;;0.85;0.50;;;;;;;;;;1840608;78;26335;-51
2022/11/14 06:17:47;;;;;;;1.00;0.60;;;;;;;;;;1836234;76;26854;-52
2022/11/14 06:20:15;;;;;;;2.27;0.50;;;;;;;;;;1831312;77;26785;-52
2022/11/14 06:22:42;;;;;;;0.60;0.57;;;;;;;;;;1821446;77;26340;-51
2022/11/14 06:25:09;;;;;;;0.82;0.40;;;;;;;;;;1817836;78;26245;-53
2022/11/14 06:27:37;;;;;;;0.88;0.53;;;;;;;;;;1816913;78;27183;-55
2022/11/14 06:30:04;;;;;;;1.87;0.60;;;;;;;;;;1829202;78;26852;-52
2022/11/14 06:32:32;;;;;;;0.50;0.50;;;;;;;;;;1822708;78;26538;-53
2022/11/14 06:34:59;;;;;;;3.08;0.50;;;;;;;;;;1827013;78;26323;-52
2022/11/14 06:37:26;;;;;;;1.62;0.70;;;;;;;;;;1825456;78;26320;-52
2022/11/14 06:39:53;;;;;;;1.07;0.40;;;;;;;;;;1824783;78;26268;-51
2022/11/14 06:42:21;;;;;;;0.50;0.50;;;;;;;;;;1823544;78;26265;-52
2022/11/14 06:44:48;;;;;;;1.07;0.50;;;;;;;;;;1826338;78;26390;-55
2022/11/14 06:47:15;;;;;;;0.50;0.50;;;;;;;;;;1825500;78;26293;-52
2022/11/14 06:49:42;;;;;;;0.85;0.60;;;;;;;;;;1812113;78;26288;-55
2022/11/14 06:52:10;;;;;;;1.57;0.70;;;;;;;;;;1823753;78;26335;-54
2022/11/14 06:54:37;;;;;;;1.27;0.70;;;;;;;;;;1830278;78;27493;-53
2022/11/14 06:57:05;;;;;;;1.20;0.70;;;;;;;;;;1828018;78;27842;-54
2022/11/14 06:59:32;;;;;;;1.10;0.50;;;;;;;;;;1817290;77;26850;-55
2022/11/14 07:01:59;;;;;;;1.70;0.70;;;;;;;;;;1824420;78;26266;-53
2022/11/14 07:04:27;;;;;;;2.05;0.80;;;;;;;;;;1816133;78;26272;-53
2022/11/14 07:06:54;;;;;;;2.75;0.95;;;;;;;;;;1813067;78;26288;-53
2022/11/14 07:09:21;;;;;;;2.75;0.90;;;;;;;;;;1820596;77;26288;-50
2022/11/14 07:11:48;;;;;;;1.32;1.05;;;;;;;;;;1819060;78;26309;-51
2022/11/14 07:14:16;;;;;;;1.57;0.70;;;;;;;;;;1810757;78;26319;-46
2022/11/14 07:16:43;;;;;;;4.33;1.45;;;;;;;;;;1784896;80;26243;-59
2022/11/14 07:19:11;;;;;;;0.95;0.85;;;;;;;;;;1797093;77;26248;-51
2022/11/14 07:21:39;;;;;;;1.40;0.80;;;;;;;;;;1814335;77;26267;-49
2022/11/14 07:24:06;;;;;;;0.90;0.90;;;;;;;;;;1859477;76;26734;-51
2022/11/14 07:26:34;;;;;;;0.70;0.70;;;;;;;;;;1862464;76;26310;-52
2022/11/14 07:29:01;;;;;;;0.85;0.80;;;;;;;;;;1855619;76;26263;-55
2022/11/14 07:31:29;;;;;;;0.75;0.75;;;;;;;;;;1867543;76;26279;-54
2022/11/14 07:33:56;;;;;;;0.90;0.90;;;;;;;;;;1860108;76;26318;-50
2022/11/14 07:36:24;;;;;;;1.12;0.75;;;;;;;;;;1859781;76;26251;-53
2022/11/14 07:38:51;;;;;;;0.70;0.70;;;;;;;;;;1858749;76;26335;-49
2022/11/14 07:41:18;;;;;;;1.67;0.80;;;;;;;;;;1867283;76;26262;-51
2022/11/14 07:43:45;;;;;;;0.70;0.70;;;;;;;;;;1860115;76;26244;-51
2022/11/14 07:46:14;;;;;;;0.53;0.50;;;;;;;;;;1863174;76;26790;-52
2022/11/14 07:48:41;;;;;;;0.80;0.80;;;;;;;;;;1864996;76;26257;-53
2022/11/14 07:51:16;;;;;;;0.80;0.80;;;;;;;;;;1869629;76;26921;-55
2022/11/14 07:53:43;;;;;;;0.62;0.62;;;;;;;;;;1868364;76;26333;-49
2022/11/14 07:56:11;;;;;;;0.60;0.60;;;;;;;;;;1874064;76;26664;-51
2022/11/14 07:58:39;;;;;;;0.53;0.53;;;;;;;;;;1870466;76;26365;-53
2022/11/14 08:01:07;;;;;;;0.55;0.55;;;;;;;;;;1869607;76;26920;-61
2022/11/14 08:03:35;;;;;;;0.70;0.60;;;;;;;;;;1875474;76;26307;-53
2022/11/14 08:06:03;;;;;;;0.60;0.60;;;;;;;;;;1871986;76;26362;-52
2022/11/14 08:08:31;;;;;;;0.62;0.62;;;;;;;;;;1869863;76;26229;-51
2022/11/14 08:10:59;;;;;;;0.47;0.47;;;;;;;;;;1869492;76;26694;-50
2022/11/14 08:13:27;;;;;;;0.67;0.67;;;;;;;;;;1868170;76;28124;-48
2022/11/14 08:15:54;;;;;;;0.57;0.57;;;;;;;;;;1870630;76;26939;-52
2022/11/14 08:18:21;;;;;;;0.68;0.57;;;;;;;;;;1872450;76;26354;-51
2022/11/14 08:20:49;;;;;;;0.62;0.62;;;;;;;;;;1871123;75;26293;-53
2022/11/14 08:23:16;;;;;;;0.60;0.60;;;;;;;;;;1871758;75;26867;-48
2022/11/14 08:25:43;;;;;;;0.42;0.42;;;;;;;;;;1864792;75;26705;-56
2022/11/14 08:28:10;;;;;;;1.22;0.50;;;;;;;;;;1870686;75;26291;-54
2022/11/14 08:30:38;;;;;;;0.50;0.50;;;;;;;;;;1870737;75;26372;-51
2022/11/14 08:33:05;;;;;;;4.65;0.60;;;;;;;;;;1869055;75;27398;-53
2022/11/14 08:35:33;;;;;;;0.50;0.50;;;;;;;;;;1872069;75;26308;-57
2022/11/14 08:38:01;;;;;;;0.55;0.50;;;;;;;;;;1875690;75;26919;-57
2022/11/14 08:40:29;;;;;;;1.35;0.50;;;;;;;;;;1875849;75;27070;-57
2022/11/14 08:43:00;;;;;;;0.50;0.50;;;;;;;;;;1870076;75;26382;-56
2022/11/14 08:45:28;;;;;;;1.42;0.37;;;;;;;;;;1872124;75;26709;-57
2022/11/14 08:47:56;;;;;;;0.50;0.50;;;;;;;;;;1873389;75;26276;-57
2022/11/14 08:50:24;;;;;;;1.00;0.50;;;;;;;;;;1873496;75;27304;-57
2022/11/14 08:52:52;;;;;;;0.53;0.47;;;;;;;;;;1867729;75;26366;-58
2022/11/14 08:55:20;;;;;;;0.60;0.60;;;;;;;;;;1873853;75;26337;-55
2022/11/14 08:57:47;;;;;;;2.00;0.60;;;;;;;;;;1873986;75;26701;-57
2022/11/14 09:00:15;;;;;;;0.50;0.50;;;;;;;;;;1873846;75;26311;-56
2022/11/14 09:02:42;;;;;;;2.75;0.60;;;;;;;;;;1871580;75;26304;-55
2022/11/14 09:05:10;;;;;;;0.50;0.50;;;;;;;;;;1867910;75;26716;-57
2022/11/14 09:07:37;;;;;;;2.17;0.60;;;;;;;;;;1871394;75;26237;-56
2022/11/14 09:10:05;;;;;;;1.90;0.62;;;;;;;;;;1872791;75;26312;-55
2022/11/14 09:12:32;;;;;;;1.32;0.60;;;;;;;;;;1867632;75;26252;-57
2022/11/14 09:14:59;;;;;;;0.70;0.60;;;;;;;;;;1872451;75;25713;-56
2022/11/14 09:17:27;;;;;;;0.70;0.60;;;;;;;;;;1871737;75;26293;-56
2022/11/14 09:19:54;;;;;;;1.75;0.50;;;;;;;;;;1870752;75;26318;-55
2022/11/14 09:22:22;;;;;;;4.08;0.72;;;;;;;;;;1872632;75;26317;-54
2022/11/14 09:24:50;;;;;;;1.90;0.50;;;;;;;;;;1872765;76;26683;-55
2022/11/14 09:27:18;;;;;;;0.40;0.40;;;;;;;;;;1876182;76;26688;-54
2022/11/14 09:29:45;;;;;;;0.30;0.30;;;;;;;;;;1872863;76;26746;-54
2022/11/14 09:32:13;;;;;;;2.35;0.53;;;;;;;;;;1871203;76;26253;-56
2022/11/14 09:34:43;;;;;;;1.15;0.53;;;;;;;;;;1873774;76;26275;-55
2022/11/14 09:37:09;;;;;;;0.40;0.35;;;;;;;;;;1869029;75;26802;-53
2022/11/14 09:39:39;;;;;;;1.75;0.30;;;;;;;;;;1873440;76;26192;-52
2022/11/14 09:42:13;;;;;;;1.00;0.50;;;;;;;;;;1866996;76;26322;-54
2022/11/14 09:44:50;;;;;;;0.53;0.50;;;;;;;;;;1875020;75;26263;-56
2022/11/14 09:47:20;;;;;;;1.55;0.30;;;;;;;;;;1869966;75;26194;-52
2022/11/14 09:49:48;;;;;;;0.55;0.40;;;;;;;;;;1872067;75;26412;-54
2022/11/14 09:52:20;;;;;;;1.17;0.40;;;;;;;;;;1876123;75;26295;-53
2022/11/14 09:54:52;;;;;;;2.77;0.33;;;;;;;;;;1875194;75;26827;-54
2022/11/14 09:57:20;;;;;;;1.05;0.33;;;;;;;;;;1870496;76;26241;-55
2022/11/14 09:59:48;;;;;;;1.55;0.33;;;;;;;;;;1873553;76;26194;-56
2022/11/14 10:02:20;;;;;;;0.30;0.30;;;;;;;;;;1878918;76;26300;-57
2022/11/14 10:04:55;;;;;;;0.35;0.35;;;;;;;;;;1872502;76;26303;-55
2022/11/14 10:07:33;;;;;;;0.23;0.23;;;;;;;;;;1876380;76;26304;-54
2022/11/14 10:10:01;;;;;;;0.30;0.30;;;;;;;;;;1845715;76;26370;-55
2022/11/14 10:12:49;;;;;;;0.30;0.30;;;;;;;;;;1871907;75;26426;-54
2022/11/14 10:15:18;;;;;;;0.20;0.20;;;;;;;;;;1871704;76;26732;-58
2022/11/14 10:17:46;;;;;;;0.20;0.17;;;;;;;;;;1873159;76;26780;-55
2022/11/14 10:20:34;;;;;;;0.33;0.33;;;;;;;;;;1871551;76;26314;-55
2022/11/14 10:23:05;;;;;;;0.40;0.40;;;;;;;;;;1882969;74;26294;-58
2022/11/14 10:25:43;;;;;;;0.10;0.10;;;;;;;;;;1886256;74;26307;-57
2022/11/14 10:28:28;;;;;;;0.55;0.42;;;;;;;;;;1887266;74;26360;-57
2022/11/14 10:31:06;;;;;;;0.20;0.20;;;;;;;;;;1888979;74;25696;-55
2022/11/14 10:33:35;;;;;;;0.40;0.40;;;;;;;;;;1882867;74;26240;-55
2022/11/14 10:36:04;;;;;;;0.17;0.17;;;;;;;;;;1881534;74;26245;-56
2022/11/14 10:38:39;;;;;;;0.20;0.20;;;;;;;;;;1892050;74;26705;-56
2022/11/14 10:41:07;;;;;;;0.20;0.20;;;;;;;;;;1884740;74;26570;-57
2022/11/14 10:43:42;;;;;;;0.35;0.25;;;;;;;;;;1888889;74;26226;-57
2022/11/14 10:46:20;;;;;;;0.33;0.33;;;;;;;;;;1888266;74;26303;-57
2022/11/14 10:48:48;;;;;;;0.23;0.23;;;;;;;;;;1892048;74;26329;-56
2022/11/14 10:51:17;;;;;;;0.10;0.10;;;;;;;;;;1886469;74;26230;-57
2022/11/14 10:54:02;;;;;;;0.20;0.20;;;;;;;;;;1885209;74;26379;-55
2022/11/14 10:56:29;;;;;;;0.30;0.30;;;;;;;;;;1887981;74;26264;-57
2022/11/14 10:58:56;;;;;;;0.20;0.20;;;;;;;;;;1886740;74;26185;-57
2022/11/14 11:01:37;;;;;;;0.28;0.20;;;;;;;;;;1884232;74;25969;-56
2022/11/14 11:04:22;;;;;;;0.20;0.20;;;;;;;;;;1886774;74;26298;-58
2022/11/14 11:06:51;;;;;;;0.25;0.25;;;;;;;;;;1888123;74;26323;-55
2022/11/14 11:12:05;;;;;;;0.13;0.13;;;;;;;;;;1886532;74;26300;-58
2022/11/14 11:14:33;;;;;;;0.28;0.28;;;;;;;;;;1884552;74;26338;-57
2022/11/14 11:17:20;;;;;;;0.30;0.30;;;;;;;;;;1883144;74;26310;-58
2022/11/14 11:19:48;;;;;;;0.30;0.30;;;;;;;;;;1887489;74;26673;-58
2022/11/14 11:22:29;;;;;;;1.15;0.20;;;;;;;;;;1876692;74;26377;-58
2022/11/14 11:24:56;;;;;;;0.10;0.10;;;;;;;;;;1872951;76;26310;-57
2022/11/14 11:27:27;;;;;;;0.30;0.30;;;;;;;;;;1872352;76;26252;-57
2022/11/14 11:30:02;;;;;;;0.20;0.20;;;;;;;;;;1873712;76;26218;-57
2022/11/14 11:32:29;;;;;;;0.20;0.20;;;;;;;;;;1873406;75;26727;-57
2022/11/14 11:34:57;;;;;;;0.28;0.28;;;;;;;;;;1867375;76;26259;-57
2022/11/14 11:37:27;;;;;;;0.10;0.10;;;;;;;;;;1872409;76;27822;-57
2022/11/14 11:39:56;;;;;;;0.17;0.17;;;;;;;;;;1871423;76;26765;-57
2022/11/14 11:42:24;;;;;;;0.10;0.10;;;;;;;;;;1871737;76;26256;-58
2022/11/14 11:44:53;;;;;;;0.20;0.20;;;;;;;;;;1872451;76;26338;-58
2022/11/14 11:47:21;;;;;;;0.10;0.10;;;;;;;;;;1870421;76;26357;-57
2022/11/14 11:49:49;;;;;;;0.20;0.20;;;;;;;;;;1875425;75;26357;-57
2022/11/14 11:52:18;;;;;;;0.30;0.30;;;;;;;;;;1872795;76;26322;-55
2022/11/14 11:54:47;;;;;;;0.30;0.30;;;;;;;;;;1870852;74;26300;-52
2022/11/14 11:57:16;;;;;;;0.30;0.30;;;;;;;;;;1870547;76;26315;-55
2022/11/14 11:59:47;;;;;;;0.35;0.15;;;;;;;;;;1870251;75;26260;-56
2022/11/14 12:02:25;;;;;;;0.20;0.20;;;;;;;;;;1866289;76;26323;-55
2022/11/14 12:04:54;;;;;;;0.23;0.23;;;;;;;;;;1876330;75;26290;-58
2022/11/14 12:07:32;;;;;;;0.30;0.23;;;;;;;;;;1869968;76;26779;-57
2022/11/14 12:10:01;;;;;;;2.42;0.30;;;;;;;;;;1871479;76;26341;-57
2022/11/14 12:12:30;;;;;;;0.20;0.20;;;;;;;;;;1863804;75;26338;-58
2022/11/14 12:15:15;;;;;;;0.20;0.20;;;;;;;;;;1869816;76;26282;-58
2022/11/14 12:17:47;;;;;;;0.30;0.30;;;;;;;;;;1875384;76;26740;-53
2022/11/14 12:20:19;;;;;;;0.30;0.30;;;;;;;;;;1876146;76;26257;-52
2022/11/14 12:23:04;;;;;;;0.40;0.40;;;;;;;;;;1880633;74;26317;-63
2022/11/14 12:25:35;;;;;;;0.45;0.37;;;;;;;;;;1887109;74;26935;-59
2022/11/14 12:28:07;;;;;;;0.30;0.30;;;;;;;;;;1882122;74;26236;-55
2022/11/14 12:30:35;;;;;;;1.25;0.30;;;;;;;;;;1889117;74;26326;-49
2022/11/14 12:33:04;;;;;;;0.53;0.25;;;;;;;;;;1886517;74;26263;-58
2022/11/14 12:35:33;;;;;;;0.30;0.30;;;;;;;;;;1887270;74;26534;-56
2022/11/14 12:38:01;;;;;;;0.85;0.30;;;;;;;;;;1881016;74;26310;-52
2022/11/14 12:40:35;;;;;;;0.47;0.20;;;;;;;;;;1893060;74;26249;-53
2022/11/14 12:43:01;;;;;;;0.30;0.30;;;;;;;;;;1888783;74;26717;-49
2022/11/14 12:45:42;;;;;;;0.15;0.15;;;;;;;;;;1886212;74;26307;-58
2022/11/14 12:48:17;;;;;;;0.25;0.25;;;;;;;;;;1887597;74;26810;-55
2022/11/14 12:50:44;;;;;;;0.20;0.20;;;;;;;;;;1893405;74;27331;-53
2022/11/14 12:53:41;;;;;;;0.80;0.25;;;;;;;;;;1881025;74;26359;-58
2022/11/14 12:56:01;;;;;;;0.20;0.20;;;;;;;;;;1881475;74;26278;-50
2022/11/14 12:58:30;;;;;;;0.33;0.33;;;;;;;;;;1888041;74;26278;-50
2022/11/14 13:00:59;;;;;;;0.65;0.30;;;;;;;;;;1882151;74;26699;-56
2022/11/14 13:03:31;;;;;;;0.15;0.15;;;;;;;;;;1882461;74;26319;-55
2022/11/14 13:06:09;;;;;;;0.30;0.30;;;;;;;;;;1891397;74;26727;-55
2022/11/14 13:08:44;;;;;;;0.30;0.30;;;;;;;;;;1880737;74;26687;-52
2022/11/14 13:11:13;;;;;;;1.75;0.40;;;;;;;;;;1888665;74;26256;-53
2022/11/14 13:22:14;;;;;;;3.10;0.37;;;;;;;;;;1889057;74;26276;-52
2022/11/14 13:25:01;;;;;;;0.20;0.20;;;;;;;;;;1887821;74;26853;-54
2022/11/14 13:27:33;;;;;;;0.40;0.40;;;;;;;;;;1883236;74;26252;-56
2022/11/14 13:30:01;;;;;;;1.92;0.30;;;;;;;;;;1886428;74;26310;-53
2022/11/14 13:32:43;;;;;;;2.30;0.20;;;;;;;;;;1880417;74;26367;-60
2022/11/14 13:35:15;;;;;;;0.45;0.20;;;;;;;;;;1893822;74;26351;-53
2022/11/14 13:37:49;;;;;;;0.30;0.30;;;;;;;;;;1887353;74;26697;-54
2022/11/14 13:40:18;;;;;;;0.20;0.20;;;;;;;;;;1884634;74;26248;-59
2022/11/14 13:42:50;;;;;;;0.20;0.20;;;;;;;;;;1872001;74;26377;-57
2022/11/14 13:45:18;;;;;;;0.30;0.30;;;;;;;;;;1888204;74;26360;-59
2022/11/14 13:47:47;;;;;;;0.20;0.20;;;;;;;;;;1883042;74;26248;-58
2022/11/14 13:50:16;;;;;;;0.30;0.30;;;;;;;;;;1886039;74;26281;-59
2022/11/14 13:52:45;;;;;;;0.20;0.20;;;;;;;;;;1888071;74;26237;-53
2022/11/14 13:55:19;;;;;;;0.30;0.30;;;;;;;;;;1885236;74;26271;-55
2022/11/14 13:57:48;;;;;;;0.30;0.30;;;;;;;;;;1884873;74;26699;-58
2022/11/14 14:00:16;;;;;;;0.33;0.33;;;;;;;;;;1884828;74;26636;-57
2022/11/14 14:02:57;;;;;;;0.28;0.28;;;;;;;;;;1891587;74;26297;-54
2022/11/14 14:05:26;;;;;;;0.30;0.30;;;;;;;;;;1889604;74;27581;-59
2022/11/14 14:08:10;;;;;;;0.30;0.30;;;;;;;;;;1887845;74;26731;-54
2022/11/14 14:10:39;;;;;;;0.20;0.20;;;;;;;;;;1775666;79;26291;-54
2022/11/14 14:13:10;;;;;;;0.30;0.30;;;;;;;;;;1850326;74;26248;-58
2022/11/14 14:15:54;;;;;;;0.20;0.20;;;;;;;;;;1854627;74;26827;-53
2022/11/14 14:18:26;;;;;;;0.42;0.40;;;;;;;;;;1882354;74;26319;-58
2022/11/14 14:20:54;;;;;;;0.30;0.30;;;;;;;;;;1887692;74;26651;-52
2022/11/14 14:23:29;;;;;;;0.37;0.37;;;;;;;;;;1880063;74;26765;-55
2022/11/14 14:25:58;;;;;;;0.20;0.20;;;;;;;;;;1871234;75;26706;-53
2022/11/14 14:28:30;;;;;;;0.47;0.30;;;;;;;;;;1873088;75;26354;-48
2022/11/14 14:31:09;;;;;;;0.30;0.30;;;;;;;;;;1867033;75;26684;-50
2022/11/14 14:33:40;;;;;;;0.30;0.30;;;;;;;;;;1872231;75;26294;-53
2022/11/14 14:36:18;;;;;;;0.30;0.30;;;;;;;;;;1865321;75;26279;-57
2022/11/14 14:38:46;;;;;;;0.40;0.40;;;;;;;;;;1879468;75;26358;-54
2022/11/14 14:41:14;;;;;;;0.40;0.40;;;;;;;;;;1862801;75;26326;-54
2022/11/14 14:43:43;;;;;;;0.30;0.30;;;;;;;;;;1875264;75;26334;-53
2022/11/14 14:46:10;;;;;;;0.30;0.30;;;;;;;;;;1868447;75;26682;-54
2022/11/14 14:48:39;;;;;;;0.35;0.35;;;;;;;;;;1877277;75;26277;-52
2022/11/14 14:51:08;;;;;;;0.40;0.40;;;;;;;;;;1872422;75;26260;-53
2022/11/14 14:53:35;;;;;;;0.30;0.30;;;;;;;;;;1873712;75;26292;-55
2022/11/14 14:56:04;;;;;;;0.30;0.30;;;;;;;;;;1868217;75;27004;-57
2022/11/14 14:58:33;;;;;;;0.40;0.40;;;;;;;;;;1869702;75;26740;-52
2022/11/14 15:01:01;;;;;;;0.30;0.30;;;;;;;;;;1866848;75;26310;-57
2022/11/14 15:03:36;;;;;;;0.30;0.30;;;;;;;;;;1869012;75;26319;-51
2022/11/14 15:06:11;;;;;;;0.35;0.35;;;;;;;;;;1864795;75;26876;-57